Time;durP1;ratioP1;P1;durP2;ratioP2;P2;SDS_P1;SDS_P2;PMS_P1;PMS_P2;Temp;Humidity;BMP_temperature;BMP_pressure;BME280_temperature;BME280_humidity;BME280_pressure;Samples;Min_cycle;Max_cycle;Signal;HPM_P1;HPM_P2
2023/07/09 00:00:56;;;;;;;7.63;5.63;;;21.30;72.10;;;;;;5015372;28;20539;-71
2023/07/09 00:03:23;;;;;;;9.90;5.03;;;21.30;72.10;;;;;;5015364;28;20439;-71
2023/07/09 00:05:51;;;;;;;6.20;4.70;;;21.20;71.70;;;;;;5015562;28;20443;-71
2023/07/09 00:08:29;;;;;;;7.10;4.70;;;21.10;72.80;;;;;;5015037;28;20443;-71
2023/07/09 00:10:57;;;;;;;6.07;4.77;;;21.00;72.20;;;;;;5015463;28;20988;-71
2023/07/09 00:13:24;;;;;;;9.07;4.87;;;21.00;73.00;;;;;;5015414;28;20545;-71
2023/07/09 00:15:57;;;;;;;8.70;4.80;;;21.00;73.30;;;;;;5024624;28;20444;-71
2023/07/09 00:18:24;;;;;;;7.87;6.10;;;20.90;73.50;;;;;;5034807;28;20841;-71
2023/07/09 00:20:51;;;;;;;8.63;6.37;;;20.90;73.90;;;;;;5034866;28;20442;-71
2023/07/09 00:23:20;;;;;;;9.73;5.50;;;20.90;74.30;;;;;;5034737;28;20482;-71
2023/07/09 00:25:47;;;;;;;9.10;6.40;;;21.00;74.60;;;;;;5025786;28;20444;-71
2023/07/09 00:28:15;;;;;;;8.30;6.30;;;20.90;75.10;;;;;;5015254;28;20482;-71
2023/07/09 00:30:42;;;;;;;8.17;5.10;;;20.80;75.20;;;;;;5014908;28;20445;-72
2023/07/09 00:33:14;;;;;;;11.03;6.17;;;20.80;75.50;;;;;;5014598;28;20507;-71
2023/07/09 00:35:42;;;;;;;6.97;5.10;;;20.80;75.20;;;;;;5014438;28;20476;-71
2023/07/09 00:38:14;;;;;;;8.13;5.63;;;20.80;75.30;;;;;;5015058;28;20438;-71
2023/07/09 00:40:48;;;;;;;8.67;6.00;;;20.80;75.40;;;;;;5015042;28;20467;-71
2023/07/09 00:43:17;;;;;;;11.30;6.70;;;20.70;75.60;;;;;;5015110;28;20454;-71
2023/07/09 00:45:45;;;;;;;8.57;6.07;;;20.70;75.70;;;;;;5014323;28;20930;-71
2023/07/09 00:48:17;;;;;;;8.30;5.20;;;20.70;75.90;;;;;;5014821;28;20447;-71
2023/07/09 00:50:50;;;;;;;7.20;4.40;;;20.70;76.80;;;;;;5021138;28;20540;-71
2023/07/09 00:53:22;;;;;;;8.33;5.77;;;20.70;75.90;;;;;;5033919;28;20469;-71
2023/07/09 00:55:54;;;;;;;8.33;5.57;;;20.70;75.90;;;;;;5033607;28;20439;-71
2023/07/09 00:58:27;;;;;;;7.60;5.13;;;20.60;75.90;;;;;;5034391;28;20440;-71
2023/07/09 01:00:59;;;;;;;8.07;5.10;;;20.50;76.20;;;;;;5034003;28;20433;-74
2023/07/09 01:03:33;;;;;;;8.90;5.30;;;20.50;76.40;;;;;;5034335;28;20430;-71
2023/07/09 01:06:00;;;;;;;10.00;4.60;;;20.50;76.40;;;;;;5024228;28;20428;-71
2023/07/09 01:08:30;;;;;;;7.87;5.07;;;20.50;76.10;;;;;;5014338;28;20555;-71
2023/07/09 01:10:58;;;;;;;8.30;5.37;;;20.50;76.20;;;;;;5012033;28;20468;-71
2023/07/09 01:13:26;;;;;;;10.97;5.63;;;20.50;76.40;;;;;;5014299;28;20540;-71
2023/07/09 01:15:54;;;;;;;8.70;4.30;;;20.50;76.60;;;;;;5014211;28;20449;-71
2023/07/09 01:18:21;;;;;;;7.27;4.43;;;20.40;76.80;;;;;;5013962;28;21015;-71
2023/07/09 01:20:49;;;;;;;7.47;4.60;;;20.40;76.80;;;;;;5014184;28;20517;-71
2023/07/09 01:23:17;;;;;;;8.67;4.93;;;20.40;76.80;;;;;;5014135;28;20446;-71
2023/07/09 01:25:51;;;;;;;7.10;4.40;;;20.40;76.50;;;;;;5017785;28;20497;-71
2023/07/09 01:28:18;;;;;;;8.67;4.67;;;20.40;76.20;;;;;;5033163;28;20501;-71
2023/07/09 01:30:45;;;;;;;7.63;5.10;;;20.40;76.60;;;;;;5033264;28;20925;-71
2023/07/09 01:33:12;;;;;;;6.20;4.33;;;20.30;76.90;;;;;;5033169;28;20474;-71
2023/07/09 01:35:42;;;;;;;7.40;4.30;;;20.30;77.00;;;;;;5031642;28;20442;-71
2023/07/09 01:38:09;;;;;;;8.43;4.70;;;20.30;77.10;;;;;;5032438;28;20435;-71
2023/07/09 01:40:38;;;;;;;7.10;5.17;;;20.30;77.10;;;;;;5033764;28;20793;-71
2023/07/09 01:43:07;;;;;;;6.50;4.40;;;20.20;77.00;;;;;;5033406;28;20538;-71
2023/07/09 01:45:35;;;;;;;6.63;4.53;;;20.30;77.30;;;;;;5027229;28;20438;-71
2023/07/09 01:48:03;;;;;;;6.77;4.80;;;20.30;77.40;;;;;;5013689;28;20439;-71
2023/07/09 01:50:30;;;;;;;7.07;4.50;;;20.30;77.30;;;;;;5013913;28;20473;-71
2023/07/09 01:52:58;;;;;;;7.40;5.37;;;20.30;77.10;;;;;;5013683;28;20516;-71
2023/07/09 01:55:25;;;;;;;8.00;4.33;;;20.20;76.80;;;;;;5016902;28;20480;-72
2023/07/09 01:57:54;;;;;;;8.33;4.53;;;20.20;77.10;;;;;;5033481;28;20437;-72
2023/07/09 02:00:21;;;;;;;7.80;5.40;;;20.20;77.70;;;;;;5033480;28;20839;-71
2023/07/09 02:02:48;;;;;;;7.03;4.30;;;20.10;77.60;;;;;;5033530;28;20541;-71
2023/07/09 02:05:18;;;;;;;8.00;4.30;;;20.10;77.70;;;;;;5036874;28;20787;-71
2023/07/09 02:07:45;;;;;;;10.90;5.53;;;20.10;77.80;;;;;;5039629;28;20445;-71
2023/07/09 02:10:13;;;;;;;5.23;3.90;;;20.10;77.80;;;;;;5038716;28;20491;-71
2023/07/09 02:12:40;;;;;;;7.20;4.83;;;20.10;77.90;;;;;;5039829;28;20511;-71
2023/07/09 02:15:10;;;;;;;7.67;4.20;;;20.00;78.20;;;;;;5038847;28;20477;-71
2023/07/09 02:17:37;;;;;;;6.40;3.77;;;20.00;78.40;;;;;;5039902;28;20515;-71
2023/07/09 02:20:06;;;;;;;6.13;4.23;;;19.90;78.60;;;;;;5039538;28;20469;-71
2023/07/09 02:22:33;;;;;;;14.30;5.60;;;19.90;78.80;;;;;;5039819;28;20438;-71
2023/07/09 02:25:01;;;;;;;9.40;5.07;;;20.00;78.90;;;;;;5039347;28;20522;-71
2023/07/09 02:27:28;;;;;;;7.30;4.60;;;20.00;78.70;;;;;;5039513;28;20449;-71
2023/07/09 02:29:55;;;;;;;8.80;5.30;;;20.00;78.70;;;;;;5038896;28;20535;-71
2023/07/09 02:32:26;;;;;;;8.47;4.37;;;20.00;78.70;;;;;;5038382;28;20481;-71
2023/07/09 02:34:54;;;;;;;7.40;5.50;;;20.00;78.00;;;;;;5039827;28;20808;-71
2023/07/09 02:37:22;;;;;;;8.80;4.70;;;20.00;77.80;;;;;;5039737;28;20440;-71
2023/07/09 02:39:50;;;;;;;7.23;5.17;;;19.90;78.10;;;;;;5035676;28;20792;-71
2023/07/09 02:42:19;;;;;;;6.37;4.70;;;19.90;78.30;;;;;;5039702;28;20575;-71
2023/07/09 02:44:47;;;;;;;7.43;5.10;;;19.80;78.90;;;;;;5039305;28;20449;-71
2023/07/09 02:47:15;;;;;;;9.13;6.00;;;19.80;79.10;;;;;;5039666;28;20567;-71
2023/07/09 02:49:43;;;;;;;15.20;4.57;;;19.80;79.20;;;;;;5038905;28;20464;-71
2023/07/09 02:52:11;;;;;;;6.47;4.40;;;19.80;79.30;;;;;;5039274;28;20488;-71
2023/07/09 02:54:38;;;;;;;5.63;4.07;;;19.70;79.20;;;;;;5039163;28;20990;-71
2023/07/09 02:57:06;;;;;;;6.50;4.40;;;19.70;79.00;;;;;;5039631;28;20437;-71
2023/07/09 02:59:33;;;;;;;7.17;4.13;;;19.60;79.00;;;;;;5038774;28;20448;-71
2023/07/09 03:02:01;;;;;;;9.27;4.43;;;19.60;79.70;;;;;;5019771;28;20441;-71
2023/07/09 03:04:29;;;;;;;6.40;4.43;;;19.60;79.10;;;;;;5029257;28;20439;-71
2023/07/09 03:06:57;;;;;;;6.10;3.80;;;19.50;79.20;;;;;;5039435;28;20445;-71
2023/07/09 03:09:24;;;;;;;7.00;4.67;;;19.50;79.60;;;;;;5039067;28;20447;-71
2023/07/09 03:11:51;;;;;;;8.27;5.00;;;19.40;79.60;;;;;;5019662;28;20513;-71
2023/07/09 03:14:18;;;;;;;6.77;4.30;;;19.40;79.40;;;;;;5019543;28;20973;-71
2023/07/09 03:16:45;;;;;;;6.97;4.77;;;19.30;79.40;;;;;;5016527;28;20500;-71
2023/07/09 03:19:12;;;;;;;6.73;4.43;;;19.30;80.10;;;;;;5016106;28;20502;-71
2023/07/09 03:21:39;;;;;;;6.80;4.97;;;19.20;80.50;;;;;;5020189;28;20451;-71
2023/07/09 03:24:09;;;;;;;8.10;4.90;;;19.20;80.40;;;;;;5016333;28;20457;-71
2023/07/09 03:26:36;;;;;;;6.77;3.90;;;19.10;79.60;;;;;;5016069;28;20482;-71
2023/07/09 03:29:03;;;;;;;9.53;4.40;;;19.10;79.60;;;;;;5016295;28;20476;-71
2023/07/09 03:31:34;;;;;;;5.90;4.30;;;19.00;79.90;;;;;;5031361;28;20445;-71
2023/07/09 03:34:02;;;;;;;7.60;4.40;;;19.00;80.40;;;;;;5015799;28;20546;-71
2023/07/09 03:36:29;;;;;;;6.50;4.37;;;19.00;80.90;;;;;;5015845;28;20944;-71
2023/07/09 03:38:56;;;;;;;6.20;4.60;;;19.00;81.10;;;;;;5026294;28;20534;-71
2023/07/09 03:41:25;;;;;;;6.17;4.73;;;19.00;81.20;;;;;;5020639;28;20445;-71
2023/07/09 03:43:53;;;;;;;6.30;4.43;;;18.90;81.50;;;;;;5016094;28;20449;-71
2023/07/09 03:46:20;;;;;;;7.63;4.67;;;18.90;81.80;;;;;;5015722;28;20433;-71
2023/07/09 03:48:47;;;;;;;6.03;3.90;;;18.90;82.50;;;;;;5015438;28;20500;-72
2023/07/09 03:51:14;;;;;;;5.80;4.20;;;18.90;82.70;;;;;;5028664;28;20495;-71
2023/07/09 03:53:41;;;;;;;8.27;4.17;;;18.90;82.80;;;;;;5035426;28;20512;-71
2023/07/09 03:56:08;;;;;;;8.77;4.80;;;18.90;82.70;;;;;;5035233;28;20502;-71
2023/07/09 03:58:37;;;;;;;6.30;4.50;;;18.90;82.60;;;;;;5035295;28;20445;-71
2023/07/09 04:01:04;;;;;;;6.00;4.10;;;18.90;83.00;;;;;;5031248;28;20441;-71
2023/07/09 04:03:31;;;;;;;5.37;4.27;;;18.90;83.10;;;;;;5035144;28;20502;-71
2023/07/09 04:05:58;;;;;;;6.53;3.90;;;18.90;83.60;;;;;;5035470;28;20451;-71
2023/07/09 04:08:26;;;;;;;6.23;4.63;;;18.90;83.80;;;;;;5035292;28;20446;-71
2023/07/09 04:10:56;;;;;;;7.20;5.10;;;19.00;83.90;;;;;;5024646;28;20454;-71
2023/07/09 04:13:23;;;;;;;5.77;4.40;;;19.00;83.90;;;;;;5015204;28;21122;-69
2023/07/09 04:15:51;;;;;;;7.33;4.13;;;19.10;84.30;;;;;;5015042;28;20978;-69
2023/07/09 04:18:18;;;;;;;4.93;3.47;;;19.10;84.30;;;;;;5015095;28;20506;-69
2023/07/09 04:20:50;;;;;;;6.07;4.47;;;19.10;83.90;;;;;;5023663;28;20558;-69
2023/07/09 04:23:17;;;;;;;5.40;3.37;;;19.20;83.70;;;;;;5034257;28;20448;-69
2023/07/09 04:25:44;;;;;;;5.50;4.37;;;19.20;83.30;;;;;;5035051;28;20905;-70
2023/07/09 04:28:11;;;;;;;7.57;4.37;;;19.20;83.90;;;;;;5034594;28;20444;-71
2023/07/09 04:30:38;;;;;;;5.90;4.00;;;19.30;83.70;;;;;;5027014;28;20456;-70
2023/07/09 04:33:09;;;;;;;6.00;4.43;;;19.40;83.90;;;;;;5015009;28;20777;-69
2023/07/09 04:35:36;;;;;;;6.67;4.20;;;19.40;84.20;;;;;;5014902;28;20516;-69
2023/07/09 04:38:03;;;;;;;6.37;3.87;;;19.40;84.60;;;;;;5014707;28;20852;-72
2023/07/09 04:40:31;;;;;;;6.23;3.73;;;19.50;84.50;;;;;;5027751;28;20473;-69
2023/07/09 04:42:57;;;;;;;6.37;5.60;;;19.60;84.50;;;;;;5014590;28;20468;-69
2023/07/09 04:45:24;;;;;;;5.23;4.17;;;19.70;83.70;;;;;;5014884;28;20449;-70
2023/07/09 04:47:52;;;;;;;5.73;4.17;;;19.70;84.70;;;;;;5014936;28;20473;-69
2023/07/09 04:50:20;;;;;;;6.47;4.37;;;19.70;83.70;;;;;;5018772;28;20472;-70
2023/07/09 04:52:47;;;;;;;7.27;5.20;;;19.70;84.10;;;;;;5034483;28;20488;-69
2023/07/09 04:55:14;;;;;;;7.50;4.73;;;19.80;84.20;;;;;;5024123;28;20482;-69
2023/07/09 04:57:44;;;;;;;6.73;5.00;;;19.90;84.60;;;;;;5014694;28;20435;-69
2023/07/09 05:00:13;;;;;;;6.07;5.07;;;19.80;84.90;;;;;;5017554;28;20440;-70
2023/07/09 05:02:40;;;;;;;7.20;3.97;;;19.90;85.30;;;;;;5034067;28;20441;-70
2023/07/09 05:05:08;;;;;;;7.67;5.10;;;20.00;85.50;;;;;;5034239;28;20547;-69
2023/07/09 05:07:36;;;;;;;6.07;5.10;;;20.00;85.60;;;;;;5033953;28;20434;-70
2023/07/09 05:10:03;;;;;;;6.03;4.77;;;20.00;86.40;;;;;;5031454;28;20986;-70
2023/07/09 05:12:30;;;;;;;8.10;4.13;;;20.10;86.80;;;;;;5014339;28;20485;-70
2023/07/09 05:14:57;;;;;;;6.33;3.90;;;20.20;86.80;;;;;;5014239;28;20485;-70
2023/07/09 05:17:24;;;;;;;9.60;4.73;;;20.30;86.30;;;;;;5014263;28;20443;-69
2023/07/09 05:19:52;;;;;;;5.23;4.07;;;20.40;86.10;;;;;;5014064;28;20461;-70
2023/07/09 05:22:19;;;;;;;6.60;4.37;;;20.50;86.30;;;;;;5013884;28;20533;-70
2023/07/09 05:24:47;;;;;;;6.63;3.90;;;20.60;86.50;;;;;;5013746;28;20443;-69
2023/07/09 05:27:14;;;;;;;8.67;5.13;;;20.70;86.10;;;;;;5013809;28;20479;-71
2023/07/09 05:29:42;;;;;;;5.77;4.73;;;20.80;84.90;;;;;;5014226;28;20447;-69
2023/07/09 05:32:09;;;;;;;6.23;4.30;;;20.90;84.90;;;;;;5032440;28;20529;-69
2023/07/09 05:34:36;;;;;;;6.10;4.20;;;21.00;84.40;;;;;;5033437;28;20528;-69
2023/07/09 05:37:03;;;;;;;7.53;4.67;;;21.00;80.30;;;;;;5033825;28;20434;-69
2023/07/09 05:39:30;;;;;;;5.90;4.10;;;21.10;78.60;;;;;;5022432;28;20440;-69
2023/07/09 05:41:59;;;;;;;8.03;4.50;;;21.20;78.50;;;;;;5030550;28;20503;-71
2023/07/09 05:44:26;;;;;;;8.93;4.83;;;21.30;78.50;;;;;;5029808;28;20478;-71
2023/07/09 05:46:57;;;;;;;10.03;4.20;;;21.40;78.90;;;;;;5022659;28;20511;-72
2023/07/09 05:49:29;;;;;;;9.50;4.20;;;21.50;79.30;;;;;;5032738;28;20467;-71
2023/07/09 05:51:56;;;;;;;7.10;4.97;;;21.60;78.50;;;;;;5032750;28;20434;-72
2023/07/09 05:54:23;;;;;;;6.47;3.87;;;21.70;77.70;;;;;;5032521;28;21018;-71
2023/07/09 05:56:50;;;;;;;7.53;3.93;;;21.80;77.70;;;;;;5032651;28;20492;-71
2023/07/09 05:59:18;;;;;;;6.97;4.00;;;21.90;77.30;;;;;;5025532;28;20505;-73
2023/07/09 06:01:45;;;;;;;9.00;4.10;;;22.00;76.70;;;;;;5012819;28;20526;-71
2023/07/09 06:04:13;;;;;;;10.37;4.27;;;22.00;74.40;;;;;;5012743;28;20961;-71
2023/07/09 06:06:41;;;;;;;5.47;3.43;;;22.10;73.90;;;;;;5012785;28;20440;-71
2023/07/09 06:09:09;;;;;;;5.70;3.53;;;22.10;70.70;;;;;;5017001;28;20526;-71
2023/07/09 06:11:36;;;;;;;5.07;3.93;;;22.10;70.70;;;;;;5024083;28;20440;-71
2023/07/09 06:14:02;;;;;;;6.53;4.00;;;22.20;70.50;;;;;;5012384;28;20945;-71
2023/07/09 06:16:31;;;;;;;8.00;3.73;;;22.30;70.70;;;;;;5012864;28;20444;-72
2023/07/09 06:18:58;;;;;;;5.37;4.40;;;22.40;71.20;;;;;;5012980;28;20846;-72
2023/07/09 06:21:25;;;;;;;5.63;3.77;;;22.50;71.40;;;;;;5013151;28;20461;-72
2023/07/09 06:23:52;;;;;;;4.83;3.13;;;22.60;71.10;;;;;;5015360;28;20509;-71
2023/07/09 06:26:19;;;;;;;6.50;4.13;;;22.70;68.90;;;;;;5015899;28;20436;-71
2023/07/09 06:28:46;;;;;;;7.17;3.50;;;22.80;68.80;;;;;;5032516;28;20433;-72
2023/07/09 06:31:13;;;;;;;5.43;3.70;;;22.90;70.00;;;;;;5031538;28;20443;-71
2023/07/09 06:33:41;;;;;;;5.67;3.83;;;23.00;69.60;;;;;;5031979;28;20446;-72
2023/07/09 06:36:10;;;;;;;5.93;2.97;;;23.20;69.10;;;;;;5012299;28;20481;-74
2023/07/09 06:38:37;;;;;;;6.30;3.53;;;23.30;69.00;;;;;;5018546;28;20443;-71
2023/07/09 06:41:10;;;;;;;9.73;3.60;;;23.30;69.50;;;;;;5032191;28;20443;-71
2023/07/09 06:43:41;;;;;;;7.10;4.57;;;23.40;69.20;;;;;;5019562;28;20534;-71
2023/07/09 06:46:11;;;;;;;10.50;5.70;;;23.50;69.50;;;;;;5012397;28;20962;-72
2023/07/09 06:48:38;;;;;;;6.93;4.73;;;23.60;69.60;;;;;;5027554;28;20516;-71
2023/07/09 06:51:07;;;;;;;10.00;3.87;;;23.70;69.10;;;;;;5032770;28;20467;-71
2023/07/09 06:53:36;;;;;;;7.03;4.10;;;23.80;68.60;;;;;;5036080;28;20451;-71
2023/07/09 06:56:07;;;;;;;7.50;4.17;;;23.90;69.10;;;;;;5035431;28;20502;-71
2023/07/09 06:58:35;;;;;;;6.73;4.20;;;24.00;69.80;;;;;;5035305;28;20839;-72
2023/07/09 07:01:03;;;;;;;6.80;4.67;;;24.20;69.60;;;;;;5055650;28;20470;-71
2023/07/09 07:03:30;;;;;;;7.80;4.50;;;24.20;67.80;;;;;;5049885;28;21122;-71
2023/07/09 07:05:57;;;;;;;6.40;3.90;;;24.30;67.80;;;;;;5032864;28;20452;-71
2023/07/09 07:08:28;;;;;;;10.70;6.60;;;24.40;68.00;;;;;;5035254;28;20962;-73
2023/07/09 07:11:01;;;;;;;6.40;4.47;;;24.50;67.80;;;;;;5036177;28;20424;-72
2023/07/09 07:13:28;;;;;;;6.33;3.73;;;24.60;67.00;;;;;;5035775;28;20440;-71
2023/07/09 07:15:55;;;;;;;5.60;3.80;;;24.70;66.70;;;;;;5018276;28;20836;-71
2023/07/09 07:18:23;;;;;;;11.10;4.93;;;24.80;66.40;;;;;;5015904;28;20448;-71
2023/07/09 07:20:50;;;;;;;6.20;4.27;;;24.90;66.40;;;;;;5015133;28;20439;-71
2023/07/09 07:23:17;;;;;;;5.50;4.00;;;25.00;64.20;;;;;;5016019;28;20445;-71
2023/07/09 07:25:47;;;;;;;8.30;4.30;;;25.10;64.30;;;;;;5018182;28;20443;-72
2023/07/09 07:28:16;;;;;;;5.63;3.50;;;25.10;64.20;;;;;;5015700;28;20442;-72
2023/07/09 07:30:58;;;;;;;7.07;5.07;;;25.30;64.70;;;;;;4998467;28;21444;-75
2023/07/09 07:33:25;;;;;;;4.83;3.30;;;25.40;65.40;;;;;;5033836;28;20438;-71
2023/07/09 07:35:52;;;;;;;7.10;3.80;;;25.60;63.60;;;;;;5034111;28;20833;-71
2023/07/09 07:38:19;;;;;;;6.03;3.07;;;25.80;62.40;;;;;;5034987;28;20447;-71
2023/07/09 07:40:47;;;;;;;5.50;3.53;;;25.90;62.10;;;;;;5035206;28;20844;-71
2023/07/09 07:43:19;;;;;;;6.13;3.60;;;26.10;60.80;;;;;;5035141;28;20499;-71
2023/07/09 07:45:48;;;;;;;4.80;3.30;;;26.10;60.70;;;;;;5024409;28;20442;-71
2023/07/09 07:48:20;;;;;;;6.73;3.87;;;26.20;59.60;;;;;;5029047;28;20531;-71
2023/07/09 07:50:47;;;;;;;6.57;3.20;;;26.30;59.50;;;;;;5016978;28;20518;-71
2023/07/09 07:53:15;;;;;;;7.30;3.67;;;26.50;59.60;;;;;;5015693;28;20439;-71
2023/07/09 07:55:42;;;;;;;8.03;4.30;;;26.60;59.40;;;;;;5015924;28;20561;-71
2023/07/09 07:58:13;;;;;;;5.23;3.17;;;26.70;58.70;;;;;;5016014;28;20439;-71
2023/07/09 08:00:44;;;;;;;6.43;3.63;;;26.80;58.70;;;;;;5015910;28;20524;-71
2023/07/09 08:03:11;;;;;;;5.87;3.50;;;27.00;58.00;;;;;;5015226;28;20436;-71
2023/07/09 08:05:38;;;;;;;5.10;3.20;;;27.10;56.40;;;;;;5015426;28;20942;-71
2023/07/09 08:08:11;;;;;;;7.67;5.60;;;27.20;53.10;;;;;;5015649;28;20498;-71
2023/07/09 08:10:38;;;;;;;8.93;5.13;;;27.30;52.40;;;;;;5015811;28;20500;-71
2023/07/09 08:13:05;;;;;;;5.40;3.47;;;27.40;52.20;;;;;;5015702;28;20443;-71
2023/07/09 08:15:34;;;;;;;5.00;2.90;;;27.50;51.50;;;;;;5015449;28;20533;-71
2023/07/09 08:18:01;;;;;;;5.57;2.90;;;27.60;49.40;;;;;;5015270;28;20945;-71
2023/07/09 08:20:28;;;;;;;6.77;3.93;;;27.70;49.50;;;;;;5015530;28;20439;-71
2023/07/09 08:22:55;;;;;;;9.23;2.60;;;27.80;49.50;;;;;;5015188;28;20929;-71
2023/07/09 08:25:22;;;;;;;6.70;3.17;;;28.00;48.20;;;;;;5015086;28;20865;-71
2023/07/09 08:27:51;;;;;;;7.47;3.57;;;28.00;48.80;;;;;;5015532;28;20793;-71
2023/07/09 08:30:18;;;;;;;5.70;3.43;;;28.20;48.00;;;;;;5015396;28;20443;-71
2023/07/09 08:32:47;;;;;;;8.13;3.80;;;28.30;46.60;;;;;;5014932;28;20976;-71
2023/07/09 08:35:19;;;;;;;7.93;3.20;;;28.40;46.00;;;;;;5015227;28;20475;-71
2023/07/09 08:37:46;;;;;;;4.50;2.93;;;28.50;45.70;;;;;;5014924;28;20470;-71
2023/07/09 08:40:15;;;;;;;5.60;2.87;;;28.60;45.60;;;;;;5015173;28;20467;-71
2023/07/09 08:42:46;;;;;;;5.93;3.17;;;28.70;45.30;;;;;;5015081;28;20502;-71
2023/07/09 08:45:27;;;;;;;7.50;3.17;;;28.80;44.10;;;;;;5015159;28;20493;-71
2023/07/09 08:48:02;;;;;;;4.60;2.97;;;28.90;44.60;;;;;;5014825;28;20837;-71
2023/07/09 08:50:37;;;;;;;5.80;2.37;;;29.00;44.20;;;;;;5014554;28;20470;-71
2023/07/09 08:53:06;;;;;;;4.87;2.73;;;29.20;44.20;;;;;;5014659;28;20901;-71
2023/07/09 08:55:40;;;;;;;8.40;4.20;;;29.30;41.80;;;;;;5014736;28;20835;-71
2023/07/09 08:58:13;;;;;;;8.83;3.10;;;29.30;42.10;;;;;;5014550;28;20431;-71
2023/07/09 09:00:48;;;;;;;4.80;2.90;;;29.40;41.20;;;;;;5014920;28;20438;-71
2023/07/09 09:03:34;;;;;;;7.30;2.90;;;29.40;39.90;;;;;;5014472;28;20463;-72
2023/07/09 09:06:01;;;;;;;11.53;3.10;;;29.50;41.10;;;;;;5014755;28;20440;-71
2023/07/09 09:08:39;;;;;;;4.23;2.47;;;29.70;39.60;;;;;;5014722;28;20501;-75
2023/07/09 09:11:16;;;;;;;5.73;3.33;;;29.70;39.90;;;;;;5014692;28;20516;-71
2023/07/09 09:13:45;;;;;;;7.00;3.17;;;29.80;40.00;;;;;;5013765;28;20467;-71
2023/07/09 09:16:23;;;;;;;5.60;2.50;;;29.90;38.70;;;;;;5014163;28;20479;-71
2023/07/09 09:18:55;;;;;;;5.80;2.70;;;29.80;39.00;;;;;;5014662;28;20782;-71
2023/07/09 09:21:26;;;;;;;5.63;2.93;;;29.90;40.50;;;;;;5014532;28;20436;-73
2023/07/09 09:23:55;;;;;;;7.50;3.20;;;30.00;39.20;;;;;;5013961;28;20501;-71
2023/07/09 09:26:27;;;;;;;5.57;2.67;;;30.10;38.60;;;;;;5014076;28;20481;-72
2023/07/09 09:28:55;;;;;;;8.13;3.90;;;30.20;39.20;;;;;;5014426;28;20435;-72
2023/07/09 09:31:22;;;;;;;4.17;2.57;;;30.30;38.90;;;;;;5014276;28;20474;-71
2023/07/09 09:33:55;;;;;;;5.33;3.10;;;30.40;38.80;;;;;;5014049;28;20439;-71
2023/07/09 09:36:24;;;;;;;4.90;3.47;;;30.60;39.30;;;;;;5014385;28;20867;-71
2023/07/09 09:38:51;;;;;;;4.90;2.70;;;30.70;38.60;;;;;;5014183;28;20442;-71
2023/07/09 09:41:20;;;;;;;4.90;3.27;;;30.80;37.40;;;;;;5014063;28;20443;-71
2023/07/09 09:43:49;;;;;;;3.70;2.40;;;30.90;38.00;;;;;;5014065;28;20470;-71
2023/07/09 09:46:19;;;;;;;7.93;3.60;;;31.00;38.00;;;;;;5014082;28;20443;-72
2023/07/09 09:48:48;;;;;;;7.63;3.17;;;31.20;38.10;;;;;;5013974;28;20525;-71
2023/07/09 09:51:17;;;;;;;4.50;2.50;;;31.30;36.30;;;;;;5014178;28;20566;-71
2023/07/09 09:53:49;;;;;;;6.27;3.20;;;31.40;36.70;;;;;;5014027;28;20541;-71
2023/07/09 09:56:20;;;;;;;3.97;3.03;;;31.60;36.10;;;;;;5013916;28;20469;-71
2023/07/09 09:58:47;;;;;;;3.93;2.47;;;31.60;35.10;;;;;;5014013;28;20473;-71
2023/07/09 10:01:18;;;;;;;6.60;2.90;;;31.70;35.10;;;;;;5013726;28;20478;-71
2023/07/09 10:03:48;;;;;;;4.83;2.73;;;31.70;36.20;;;;;;5013965;28;20430;-71
2023/07/09 10:06:20;;;;;;;3.70;2.40;;;31.90;35.40;;;;;;5013632;28;20435;-71
2023/07/09 10:08:56;;;;;;;7.10;2.80;;;31.90;33.70;;;;;;5013918;28;20436;-71
2023/07/09 10:11:33;;;;;;;7.30;2.60;;;32.00;32.60;;;;;;5013695;28;20432;-71
2023/07/09 10:14:05;;;;;;;7.50;3.00;;;32.00;33.50;;;;;;5013863;28;20485;-71
2023/07/09 10:16:37;;;;;;;5.57;3.20;;;32.10;33.30;;;;;;5013435;28;21047;-71
2023/07/09 10:19:14;;;;;;;4.47;3.00;;;32.20;32.90;;;;;;5013491;28;20467;-71
2023/07/09 10:21:47;;;;;;;6.00;3.27;;;32.30;32.20;;;;;;5014035;28;20431;-71
2023/07/09 10:24:30;;;;;;;4.70;3.13;;;32.30;32.10;;;;;;5013377;28;20499;-71
2023/07/09 10:27:02;;;;;;;5.87;3.20;;;32.30;31.50;;;;;;5016393;28;20470;-71
2023/07/09 10:29:47;;;;;;;4.60;3.20;;;32.40;32.00;;;;;;5017697;28;20431;-71
2023/07/09 10:32:25;;;;;;;8.63;3.00;;;32.50;31.80;;;;;;5017591;28;20536;-71
2023/07/09 10:35:05;;;;;;;7.80;3.70;;;32.60;30.60;;;;;;5017534;28;20477;-71
2023/07/09 10:37:50;;;;;;;7.83;3.50;;;32.70;29.80;;;;;;5017478;28;20481;-71
2023/07/09 10:40:25;;;;;;;4.60;2.57;;;32.70;29.50;;;;;;5017427;28;20458;-71
2023/07/09 10:42:58;;;;;;;5.00;3.60;;;32.50;27.10;;;;;;5017378;28;20850;-71
2023/07/09 10:45:30;;;;;;;4.87;4.30;;;32.50;28.10;;;;;;5017048;28;20459;-70
2023/07/09 10:48:02;;;;;;;5.60;3.60;;;32.50;27.80;;;;;;5017280;28;20470;-71
2023/07/09 10:50:34;;;;;;;5.33;3.00;;;32.40;28.70;;;;;;5016943;28;20537;-71
2023/07/09 10:53:13;;;;;;;5.23;2.60;;;32.50;29.90;;;;;;5016938;28;20941;-71
2023/07/09 10:55:50;;;;;;;7.57;2.70;;;32.60;28.40;;;;;;5016851;28;20458;-70
2023/07/09 10:58:28;;;;;;;4.63;3.10;;;32.60;28.90;;;;;;5016784;28;20427;-71
2023/07/09 11:00:55;;;;;;;4.40;2.80;;;32.70;29.10;;;;;;5017300;28;20838;-71
2023/07/09 11:03:31;;;;;;;4.60;2.97;;;32.80;29.20;;;;;;5017070;28;20470;-71
2023/07/09 11:05:58;;;;;;;8.90;3.00;;;32.90;30.00;;;;;;5016702;28;20947;-71
2023/07/09 11:08:35;;;;;;;6.47;5.77;;;33.20;30.60;;;;;;5016885;28;20467;-73
2023/07/09 11:11:07;;;;;;;5.57;2.77;;;33.20;29.70;;;;;;5016646;28;20863;-71
2023/07/09 11:13:41;;;;;;;5.80;4.03;;;33.30;29.40;;;;;;5017185;28;20432;-71
2023/07/09 11:16:12;;;;;;;5.10;3.23;;;33.40;28.90;;;;;;5016460;28;20459;-71
2023/07/09 11:18:39;;;;;;;4.77;3.20;;;33.40;28.90;;;;;;5016786;28;20459;-71
2023/07/09 11:21:07;;;;;;;3.80;2.40;;;33.50;28.90;;;;;;5016684;28;20466;-71
2023/07/09 11:23:47;;;;;;;5.37;3.00;;;33.60;28.40;;;;;;5016575;28;20478;-71
2023/07/09 11:26:22;;;;;;;5.10;2.60;;;33.60;28.20;;;;;;5016621;28;20427;-71
2023/07/09 11:28:53;;;;;;;5.20;2.97;;;33.60;27.50;;;;;;5018520;28;20488;-71
2023/07/09 11:31:23;;;;;;;4.50;2.60;;;33.60;26.70;;;;;;5023316;28;20829;-71
2023/07/09 11:34:01;;;;;;;4.17;2.93;;;33.40;26.90;;;;;;5036233;28;20438;-71
2023/07/09 11:36:30;;;;;;;7.30;3.67;;;33.30;27.10;;;;;;5020523;28;20463;-71
2023/07/09 11:38:58;;;;;;;6.27;3.43;;;33.40;27.30;;;;;;5022858;28;20470;-71
2023/07/09 11:41:39;;;;;;;6.73;2.70;;;33.40;29.10;;;;;;5015808;28;20498;-71
2023/07/09 11:44:15;;;;;;;5.33;3.23;;;33.50;28.70;;;;;;5015005;28;20419;-71
2023/07/09 11:46:53;;;;;;;3.70;2.60;;;33.60;28.50;;;;;;5025655;28;21071;-71
2023/07/09 11:49:22;;;;;;;4.87;3.27;;;33.60;29.20;;;;;;5020703;28;20489;-71
2023/07/09 11:51:53;;;;;;;5.03;3.30;;;33.70;29.00;;;;;;5032693;28;20430;-70
2023/07/09 11:54:22;;;;;;;6.10;3.30;;;33.80;29.40;;;;;;5035253;28;20485;-71
2023/07/09 11:56:56;;;;;;;5.73;3.00;;;33.90;29.10;;;;;;5034158;28;20513;-71
2023/07/09 11:59:23;;;;;;;4.80;2.70;;;34.00;29.80;;;;;;5034557;28;20442;-71
2023/07/09 12:01:54;;;;;;;6.73;2.93;;;34.00;29.60;;;;;;5025356;28;20496;-73
2023/07/09 12:04:24;;;;;;;6.03;2.90;;;34.20;29.60;;;;;;5015707;28;20432;-71
2023/07/09 12:06:57;;;;;;;5.10;3.10;;;34.20;29.20;;;;;;5015712;28;20761;-71
2023/07/09 12:09:25;;;;;;;5.50;2.90;;;34.20;29.10;;;;;;5033038;28;20426;-71
2023/07/09 12:11:52;;;;;;;6.77;3.30;;;34.30;29.20;;;;;;5023437;28;20457;-72
2023/07/09 12:14:22;;;;;;;8.33;3.63;;;34.30;29.00;;;;;;5015511;28;20485;-70
2023/07/09 12:16:51;;;;;;;7.00;3.90;;;34.30;28.60;;;;;;5014874;28;20499;-71
2023/07/09 12:19:19;;;;;;;6.90;3.67;;;34.30;29.00;;;;;;5014890;28;20439;-70
2023/07/09 12:21:49;;;;;;;5.10;2.83;;;34.30;28.70;;;;;;5031183;28;20438;-71
2023/07/09 12:24:21;;;;;;;4.33;2.80;;;34.40;28.00;;;;;;5034985;28;20490;-71
2023/07/09 12:26:59;;;;;;;3.67;2.37;;;34.50;27.90;;;;;;5005157;28;20443;-71
2023/07/09 12:29:32;;;;;;;5.03;2.70;;;34.50;27.70;;;;;;5023217;28;20790;-74
2023/07/09 12:31:59;;;;;;;6.03;2.80;;;34.50;28.30;;;;;;5013608;28;20863;-70
2023/07/09 12:34:28;;;;;;;5.40;3.60;;;34.50;27.70;;;;;;5021544;28;20439;-68
2023/07/09 12:36:56;;;;;;;7.40;3.33;;;34.50;28.40;;;;;;5021711;28;20475;-68
2023/07/09 12:39:26;;;;;;;4.40;2.83;;;34.60;28.30;;;;;;5014382;28;20530;-71
2023/07/09 12:42:02;;;;;;;5.93;2.60;;;34.50;27.60;;;;;;5014557;28;20474;-71
2023/07/09 12:44:33;;;;;;;5.13;2.60;;;34.50;27.10;;;;;;5013656;28;20565;-71
2023/07/09 12:47:01;;;;;;;8.80;3.67;;;34.50;27.40;;;;;;5025193;28;20443;-71
2023/07/09 12:49:29;;;;;;;4.30;2.40;;;34.50;26.90;;;;;;5014098;28;20467;-70
2023/07/09 12:51:57;;;;;;;4.40;2.90;;;34.50;26.40;;;;;;5014596;28;20892;-68
2023/07/09 12:54:24;;;;;;;4.40;2.90;;;34.50;26.70;;;;;;5014638;28;20451;-69
2023/07/09 12:56:53;;;;;;;6.30;2.40;;;34.50;26.30;;;;;;5016948;28;20504;-70